createdAt,value
2022-12-04T00:01:27.762Z,36.85
2022-12-04T00:03:56.720Z,36.80
2022-12-04T00:06:23.952Z,38.60
2022-12-04T00:08:51.793Z,37.90
2022-12-04T00:11:22.081Z,37.33
2022-12-04T00:13:48.671Z,40.80
2022-12-04T00:16:18.894Z,38.65
2022-12-04T00:18:45.529Z,41.35
2022-12-04T00:21:13.929Z,40.78
2022-12-04T00:23:40.782Z,40.85
2022-12-04T00:26:10.587Z,37.65
2022-12-04T00:28:37.840Z,42.17
2022-12-04T00:31:12.953Z,40.40
2022-12-04T00:33:39.841Z,36.53
2022-12-04T00:36:09.782Z,35.67
2022-12-04T00:38:37.380Z,44.15
2022-12-04T00:41:05.115Z,38.65
2022-12-04T00:43:31.864Z,36.80
2022-12-04T00:45:58.559Z,38.10
2022-12-04T00:48:25.157Z,44.55
2022-12-04T00:50:51.756Z,37.22
2022-12-04T00:53:18.395Z,40.63
2022-12-04T00:55:44.911Z,39.65
2022-12-04T00:58:12.318Z,36.03
2022-12-04T01:00:41.618Z,37.42
2022-12-04T01:03:09.407Z,40.60
2022-12-04T01:05:40.875Z,39.97
2022-12-04T01:08:08.164Z,38.88
2022-12-04T01:10:35.214Z,36.08
2022-12-04T01:13:01.727Z,46.25
2022-12-04T01:15:28.206Z,35.55
2022-12-04T01:17:54.863Z,33.53
2022-12-04T01:20:21.374Z,37.67
2022-12-04T01:22:47.879Z,42.50
2022-12-04T01:25:14.338Z,39.45
2022-12-04T01:27:40.833Z,39.17
2022-12-04T01:30:08.048Z,40.50
2022-12-04T01:32:34.508Z,36.00
2022-12-04T01:35:00.984Z,39.53
2022-12-04T01:37:30.665Z,36.88
2022-12-04T01:39:57.661Z,39.65
2022-12-04T01:42:24.909Z,37.63
2022-12-04T01:45:29.259Z,35.80
2022-12-04T01:48:00.307Z,36.53
2022-12-04T01:50:26.889Z,34.92
2022-12-04T01:52:53.532Z,42.47
2022-12-04T01:55:20.052Z,40.75
2022-12-04T01:57:46.666Z,36.58
2022-12-04T02:00:15.959Z,35.47
2022-12-04T02:02:47.394Z,38.47
2022-12-04T02:05:19.347Z,38.47
2022-12-04T02:07:48.638Z,35.97
2022-12-04T02:10:17.176Z,35.30
2022-12-04T02:12:51.175Z,39.35
2022-12-04T02:15:26.823Z,39.28
2022-12-04T02:18:22.466Z,35.95
2022-12-04T02:20:57.856Z,40.83
2022-12-04T02:23:52.357Z,35.25
2022-12-04T02:26:40.729Z,41.97
2022-12-04T02:29:34.283Z,35.28
2022-12-04T02:32:19.946Z,38.95
2022-12-04T02:35:08.885Z,37.88
2022-12-04T02:37:49.592Z,40.83
2022-12-04T02:40:22.879Z,36.28
2022-12-04T02:43:03.496Z,37.70
2022-12-04T02:45:35.250Z,39.30
2022-12-04T02:48:06.250Z,33.03
2022-12-04T02:50:36.104Z,39.15
2022-12-04T02:53:10.201Z,38.95
2022-12-04T02:56:17.147Z,35.63
2022-12-04T02:58:52.796Z,36.67
2022-12-04T03:01:24.039Z,39.17
2022-12-04T03:04:14.084Z,37.97
2022-12-04T03:06:44.442Z,36.25
2022-12-04T03:09:32.754Z,40.25
2022-12-04T03:12:20.523Z,36.83
2022-12-04T03:15:08.003Z,40.65
2022-12-04T03:17:46.135Z,42.50
2022-12-04T03:20:15.307Z,41.03
2022-12-04T03:22:46.020Z,39.22
2022-12-04T03:25:13.918Z,45.05
2022-12-04T03:27:54.651Z,47.72
2022-12-04T03:30:23.927Z,39.22
2022-12-04T03:33:07.131Z,43.45
2022-12-04T03:35:39.308Z,35.67
2022-12-04T03:38:37.760Z,45.95
2022-12-04T03:41:30.541Z,37.08
2022-12-04T03:44:08.836Z,43.70
2022-12-04T03:47:01.864Z,41.28
2022-12-04T03:49:42.059Z,38.90
2022-12-04T03:52:18.844Z,38.72
2022-12-04T03:55:18.300Z,40.97
2022-12-04T03:57:46.752Z,34.90
2022-12-04T04:00:15.641Z,39.65
2022-12-04T04:02:48.765Z,36.17
2022-12-04T04:05:16.571Z,40.58
2022-12-04T04:07:51.545Z,41.28
2022-12-04T04:10:21.851Z,44.42
2022-12-04T04:13:19.260Z,43.78
2022-12-04T04:16:10.943Z,46.03
2022-12-04T04:19:00.494Z,41.97
2022-12-04T04:21:50.884Z,54.17
2022-12-04T04:24:43.369Z,43.20
2022-12-04T04:27:10.009Z,37.72
2022-12-04T04:29:38.043Z,53.22
2022-12-04T04:32:16.762Z,47.78
2022-12-04T04:35:04.997Z,35.63
2022-12-04T04:37:42.915Z,43.05
2022-12-04T04:40:15.449Z,39.35
2022-12-04T04:42:48.002Z,48.03
2022-12-04T04:45:47.974Z,41.83
2022-12-04T04:48:19.427Z,49.97
2022-12-04T04:50:46.369Z,45.95
2022-12-04T04:53:18.784Z,41.95
2022-12-04T04:55:45.855Z,44.35
2022-12-04T04:58:16.148Z,45.58
2022-12-04T05:01:05.545Z,41.08
2022-12-04T05:03:32.639Z,37.25
2022-12-04T05:05:59.330Z,44.28
2022-12-04T05:08:25.865Z,45.53
2022-12-04T05:10:52.538Z,43.47
2022-12-04T05:13:19.848Z,44.13
2022-12-04T05:16:03.550Z,42.80
2022-12-04T05:18:31.387Z,51.03
2022-12-04T05:21:05.444Z,43.78
2022-12-04T05:23:31.892Z,42.78
2022-12-04T05:26:02.767Z,48.03
2022-12-04T05:28:29.510Z,42.13
2022-12-04T05:30:57.717Z,41.85
2022-12-04T05:33:24.477Z,48.33
2022-12-04T05:36:02.316Z,52.47
2022-12-04T05:38:28.897Z,41.75
2022-12-04T05:40:58.158Z,46.05
2022-12-04T05:43:24.721Z,44.83
2022-12-04T05:45:51.180Z,45.08
2022-12-04T05:48:17.841Z,46.10
2022-12-04T05:50:44.489Z,43.38
2022-12-04T05:53:10.971Z,44.67
2022-12-04T05:55:37.560Z,53.40
2022-12-04T05:58:04.640Z,47.75
2022-12-04T06:00:31.343Z,44.17
2022-12-04T06:02:58.263Z,46.83
2022-12-04T06:05:24.721Z,43.22
2022-12-04T06:07:51.386Z,48.50
2022-12-04T06:10:17.889Z,41.13
2022-12-04T06:12:44.360Z,45.10
2022-12-04T06:15:11.161Z,48.60
2022-12-04T06:17:37.629Z,43.97
2022-12-04T06:20:10.916Z,48.40
2022-12-04T06:22:38.102Z,41.55
2022-12-04T06:25:04.929Z,49.25
2022-12-04T06:27:31.651Z,47.67
2022-12-04T06:29:58.541Z,49.42
2022-12-04T06:32:25.499Z,42.95
2022-12-04T06:34:53.612Z,49.38
2022-12-04T06:37:21.775Z,47.30
2022-12-04T06:39:48.815Z,48.47
2022-12-04T06:42:15.372Z,45.40
2022-12-04T06:44:41.849Z,43.97
2022-12-04T06:47:08.667Z,47.95
2022-12-04T06:49:36.189Z,42.40
2022-12-04T06:52:02.710Z,43.45
2022-12-04T06:54:29.229Z,47.97
2022-12-04T06:56:55.659Z,51.17
2022-12-04T06:59:22.115Z,43.90
2022-12-04T07:01:48.742Z,46.80
2022-12-04T07:04:15.320Z,47.70
2022-12-04T07:06:42.016Z,41.72
2022-12-04T07:09:15.422Z,42.55
2022-12-04T07:11:43.193Z,48.30
2022-12-04T07:14:11.685Z,43.95
2022-12-04T07:16:41.340Z,47.35
2022-12-04T07:19:13.691Z,46.58
2022-12-04T07:21:41.120Z,49.28
2022-12-04T07:24:07.842Z,44.25
2022-12-04T07:26:34.318Z,44.72
2022-12-04T07:29:00.935Z,40.97
2022-12-04T07:31:29.483Z,47.35
2022-12-04T07:36:24.521Z,45.50
2022-12-04T07:38:51.391Z,42.70
2022-12-04T07:41:19.315Z,46.35
2022-12-04T07:43:46.188Z,42.42
2022-12-04T07:46:16.270Z,44.58
2022-12-04T07:48:43.326Z,41.50
2022-12-04T07:51:15.689Z,40.47
2022-12-04T07:53:42.480Z,45.75
2022-12-04T07:56:10.495Z,44.50
2022-12-04T07:58:37.136Z,44.28
2022-12-04T08:01:12.368Z,49.88
2022-12-04T08:03:46.874Z,44.33
2022-12-04T08:06:15.648Z,49.47
2022-12-04T08:08:42.216Z,39.63
2022-12-04T08:11:11.675Z,48.78
2022-12-04T08:13:38.178Z,55.38
2022-12-04T08:16:06.645Z,42.83
2022-12-04T08:18:33.330Z,50.47
2022-12-04T08:21:05.717Z,47.97
2022-12-04T08:23:32.286Z,45.30
2022-12-04T08:26:00.558Z,44.22
2022-12-04T08:28:27.182Z,48.60
2022-12-04T08:30:53.768Z,45.05
2022-12-04T08:33:20.300Z,45.47
2022-12-04T08:35:46.927Z,42.50
2022-12-04T08:38:13.435Z,43.67
2022-12-04T08:40:40.046Z,46.33
2022-12-04T08:43:06.479Z,48.50
2022-12-04T08:45:33.093Z,44.70
2022-12-04T08:47:59.578Z,49.67
2022-12-04T08:50:26.069Z,45.55
2022-12-04T08:52:52.635Z,52.63
2022-12-04T08:55:19.715Z,50.63
2022-12-04T08:57:46.313Z,50.80
2022-12-04T09:00:13.501Z,39.03
2022-12-04T09:02:39.952Z,45.13
2022-12-04T09:05:06.701Z,41.65
2022-12-04T09:07:33.405Z,46.70
2022-12-04T09:10:00.151Z,43.55
2022-12-04T09:12:26.979Z,41.60
2022-12-04T09:14:53.619Z,43.28
2022-12-04T09:17:20.072Z,41.47
2022-12-04T09:19:46.740Z,40.08
2022-12-04T09:22:13.235Z,30.50
2022-12-04T09:24:39.824Z,41.30
2022-12-04T09:27:11.287Z,49.67
2022-12-04T09:29:40.886Z,42.35
2022-12-04T09:32:07.637Z,48.20
2022-12-04T09:34:34.184Z,46.55
2022-12-04T09:37:01.130Z,47.25
2022-12-04T09:39:27.674Z,39.22
2022-12-04T09:42:09.391Z,46.47
2022-12-04T09:44:41.355Z,39.60
2022-12-04T09:47:29.664Z,46.40
2022-12-04T09:49:59.024Z,43.15
2022-12-04T09:52:40.218Z,39.05
2022-12-04T09:57:43.968Z,42.95
2022-12-04T10:00:14.212Z,35.42
2022-12-04T10:02:44.837Z,36.55
2022-12-04T10:05:21.693Z,35.90
2022-12-04T10:08:07.665Z,40.63
2022-12-04T10:10:39.424Z,36.47
2022-12-04T10:13:24.606Z,35.05
2022-12-04T10:16:20.771Z,37.92
2022-12-04T10:19:00.891Z,38.60
2022-12-04T10:22:00.604Z,36.33
2022-12-04T10:24:48.484Z,38.40
2022-12-04T10:27:22.758Z,37.08
2022-12-04T10:29:55.662Z,32.50
2022-12-04T10:32:35.018Z,36.60
2022-12-04T10:35:33.075Z,32.35
2022-12-04T10:38:06.892Z,29.67
2022-12-04T10:40:40.224Z,30.02
2022-12-04T10:43:18.900Z,37.28
2022-12-04T10:45:45.532Z,26.98
2022-12-04T10:48:31.628Z,28.70
2022-12-04T10:50:58.188Z,27.95
2022-12-04T10:53:31.025Z,29.40
2022-12-04T10:56:09.514Z,24.63
2022-12-04T10:58:36.005Z,25.83
2022-12-04T11:01:05.986Z,30.27
2022-12-04T11:03:32.654Z,28.08
2022-12-04T11:06:03.866Z,29.08
2022-12-04T11:08:42.637Z,29.42
2022-12-04T11:11:12.899Z,34.15
2022-12-04T11:13:42.189Z,25.25
2022-12-04T11:16:28.885Z,26.25
2022-12-04T11:18:55.578Z,25.40
2022-12-04T11:21:32.130Z,21.33
2022-12-04T11:23:58.912Z,20.40
2022-12-04T11:26:32.851Z,25.85
2022-12-04T11:29:05.411Z,22.30
2022-12-04T11:31:33.168Z,20.60
2022-12-04T11:34:06.879Z,25.33
2022-12-04T11:36:41.654Z,23.73
2022-12-04T11:41:38.058Z,22.08
2022-12-04T11:44:24.611Z,24.08
2022-12-04T11:46:56.625Z,21.55
2022-12-04T11:49:25.135Z,22.02
2022-12-04T11:52:23.153Z,18.75
2022-12-04T11:55:08.789Z,18.70
2022-12-04T11:57:49.893Z,19.95
2022-12-04T12:00:21.781Z,22.83
2022-12-04T12:02:58.153Z,15.43
2022-12-04T12:05:46.247Z,21.85
2022-12-04T12:08:46.783Z,15.15
2022-12-04T12:11:25.802Z,18.27
2022-12-04T12:14:15.474Z,21.80
2022-12-04T12:16:58.413Z,18.55
2022-12-04T12:20:04.260Z,16.15
2022-12-04T12:22:36.505Z,22.33
2022-12-04T12:25:17.371Z,21.17
2022-12-04T12:30:22.446Z,16.38
2022-12-04T12:32:53.868Z,15.23
2022-12-04T12:35:27.089Z,20.02
2022-12-04T12:37:58.210Z,16.92
2022-12-04T12:40:39.866Z,18.08
2022-12-04T12:43:20.833Z,16.63
2022-12-04T12:45:59.747Z,20.02
2022-12-04T12:48:46.589Z,18.05
2022-12-04T12:51:29.963Z,23.63
2022-12-04T12:54:04.845Z,20.52
2022-12-04T12:56:38.497Z,22.45
2022-12-04T12:59:12.246Z,16.42
2022-12-04T13:02:13.927Z,18.65
2022-12-04T13:04:43.646Z,19.55
2022-12-04T13:07:20.700Z,18.60
2022-12-04T13:09:53.057Z,20.27
2022-12-04T13:12:21.211Z,23.58
2022-12-04T13:14:49.292Z,23.60
2022-12-04T13:17:24.012Z,23.63
2022-12-04T13:19:54.472Z,23.42
2022-12-04T13:22:54.179Z,24.85
2022-12-04T13:25:35.900Z,22.35
2022-12-04T13:28:31.499Z,22.52
2022-12-04T13:31:25.841Z,18.70
2022-12-04T13:33:58.084Z,21.00
2022-12-04T13:36:42.950Z,29.85
2022-12-04T13:39:18.629Z,30.02
2022-12-04T13:41:45.197Z,30.27
2022-12-04T13:44:22.268Z,32.08
2022-12-04T13:46:58.831Z,30.52
2022-12-04T13:49:31.763Z,29.88
2022-12-04T13:52:00.364Z,31.00
2022-12-04T13:54:35.760Z,28.13
2022-12-04T13:57:14.552Z,28.65
2022-12-04T13:59:42.329Z,33.38
2022-12-04T14:02:29.031Z,34.97
2022-12-04T14:05:06.563Z,31.48
2022-12-04T14:07:42.958Z,35.78
2022-12-04T14:10:15.750Z,37.80
2022-12-04T14:12:49.845Z,38.33
2022-12-04T14:15:38.188Z,36.03
2022-12-04T14:18:11.434Z,35.38
2022-12-04T14:20:39.370Z,39.15
2022-12-04T14:23:17.863Z,38.67
2022-12-04T14:25:44.443Z,42.10
2022-12-04T14:28:22.863Z,42.03
2022-12-04T14:31:06.015Z,33.95
2022-12-04T14:33:39.509Z,39.20
2022-12-04T14:36:11.072Z,37.38
2022-12-04T14:38:38.413Z,39.72
2022-12-04T14:41:04.955Z,35.67
2022-12-04T14:43:50.433Z,32.50
2022-12-04T14:46:41.717Z,39.50
2022-12-04T14:49:23.583Z,37.30
2022-12-04T14:52:27.101Z,35.25
2022-12-04T14:55:07.504Z,41.55
2022-12-04T14:58:00.337Z,36.80
2022-12-04T15:00:26.815Z,35.08
2022-12-04T15:02:58.232Z,35.85
2022-12-04T15:05:28.412Z,37.63
2022-12-04T15:07:59.938Z,34.95
2022-12-04T15:10:47.683Z,32.85
2022-12-04T15:13:29.237Z,31.67
2022-12-04T15:15:56.099Z,31.75
2022-12-04T15:18:22.703Z,30.92
2022-12-04T15:20:49.127Z,30.15
2022-12-04T15:23:18.828Z,28.98
2022-12-04T15:25:49.044Z,35.55
2022-12-04T15:28:31.348Z,29.85
2022-12-04T15:31:01.053Z,31.10
2022-12-04T15:33:30.867Z,27.60
2022-12-04T15:36:02.841Z,29.67
2022-12-04T15:38:29.578Z,25.02
2022-12-04T15:40:58.861Z,27.23
2022-12-04T15:43:41.145Z,30.65
2022-12-04T15:46:35.806Z,27.75
2022-12-04T15:49:26.858Z,25.40
2022-12-04T15:52:05.716Z,28.88
2022-12-04T15:54:33.066Z,28.60
2022-12-04T15:57:05.636Z,28.08
2022-12-04T15:59:34.715Z,30.95
2022-12-04T16:02:08.800Z,31.35
2022-12-04T16:04:37.951Z,29.60
2022-12-04T16:07:20.545Z,24.85
2022-12-04T16:09:55.797Z,30.45
2022-12-04T16:12:31.583Z,26.77
2022-12-04T16:14:58.344Z,25.20
2022-12-04T16:17:31.430Z,31.13
2022-12-04T16:19:59.286Z,25.13
2022-12-04T16:22:27.098Z,32.33
2022-12-04T16:24:54.588Z,29.60
2022-12-04T16:27:25.754Z,24.23
2022-12-04T16:29:53.198Z,25.77
2022-12-04T16:32:24.589Z,27.65
2022-12-04T16:34:53.407Z,26.40
2022-12-04T16:37:23.337Z,24.20
2022-12-04T16:39:50.651Z,27.27
2022-12-04T16:42:29.665Z,26.13
2022-12-04T16:44:58.182Z,24.00
2022-12-04T16:49:57.738Z,23.63
2022-12-04T16:52:50.092Z,25.10
2022-12-04T16:55:38.579Z,24.13
2022-12-04T16:58:08.870Z,29.80
2022-12-04T17:00:46.245Z,23.80
2022-12-04T17:03:29.047Z,25.48
2022-12-04T17:05:56.944Z,24.70
2022-12-04T17:08:26.731Z,25.23
2022-12-04T17:10:54.207Z,23.50
2022-12-04T17:13:28.438Z,25.33
2022-12-04T17:15:55.492Z,23.35
2022-12-04T17:18:22.452Z,22.35
2022-12-04T17:20:51.879Z,26.67
2022-12-04T17:23:19.031Z,21.05
2022-12-04T17:25:51.826Z,25.50
2022-12-04T17:28:21.332Z,24.52
2022-12-04T17:30:48.273Z,20.77
2022-12-04T17:33:18.446Z,22.05
2022-12-04T17:35:51.164Z,19.63
2022-12-04T17:38:40.699Z,21.88
2022-12-04T17:41:22.601Z,28.30
2022-12-04T17:43:49.960Z,24.48
2022-12-04T17:46:21.856Z,24.52
2022-12-04T17:48:53.231Z,26.67
2022-12-04T17:51:24.361Z,24.38
2022-12-04T17:53:55.806Z,26.67
2022-12-04T17:56:34.229Z,24.67
2022-12-04T17:59:14.535Z,28.85
2022-12-04T18:01:41.709Z,27.13
2022-12-04T18:04:29.166Z,31.83
2022-12-04T18:06:56.565Z,30.20
2022-12-04T18:09:23.151Z,30.40
2022-12-04T18:12:39.403Z,33.75
2022-12-04T18:15:25.181Z,33.55
2022-12-04T18:18:03.457Z,31.50
2022-12-04T18:20:32.785Z,27.17
2022-12-04T18:23:51.364Z,32.53
2022-12-04T18:26:21.318Z,33.60
2022-12-04T18:28:51.856Z,35.10
2022-12-04T18:31:24.228Z,29.73
2022-12-04T18:33:51.006Z,30.75
2022-12-04T18:36:42.450Z,26.10
2022-12-04T18:39:21.118Z,30.30
2022-12-04T18:44:26.877Z,30.88
2022-12-04T18:46:58.804Z,32.10
2022-12-04T18:49:28.739Z,31.13
2022-12-04T18:51:59.205Z,28.42
2022-12-04T18:54:26.184Z,37.88
2022-12-04T18:56:58.360Z,31.45
2022-12-04T18:59:32.442Z,29.05
2022-12-04T19:01:59.340Z,30.83
2022-12-04T19:04:34.758Z,31.92
2022-12-04T19:07:02.516Z,32.35
2022-12-04T19:10:02.575Z,33.70
2022-12-04T19:12:21.930Z,28.70
2022-12-04T19:14:51.897Z,22.67
2022-12-04T19:17:24.309Z,29.60
2022-12-04T19:19:54.065Z,27.55
2022-12-04T19:22:26.666Z,29.73
2022-12-04T19:25:00.608Z,30.80
2022-12-04T19:27:33.908Z,27.38
2022-12-04T19:30:04.015Z,32.90
2022-12-04T19:32:35.093Z,31.92
2022-12-04T19:35:11.440Z,33.60
2022-12-04T19:37:41.715Z,30.73
2022-12-04T19:40:14.027Z,27.23
2022-12-04T19:42:43.227Z,27.52
2022-12-04T19:45:10.792Z,25.75
2022-12-04T19:47:43.435Z,30.92
2022-12-04T19:50:22.443Z,26.10
2022-12-04T19:52:51.595Z,27.80
2022-12-04T19:55:23.337Z,29.38
2022-12-04T19:57:50.316Z,29.65
2022-12-04T20:00:17.457Z,23.95
2022-12-04T20:02:48.102Z,31.67
2022-12-04T20:05:20.316Z,24.30
2022-12-04T20:07:47.343Z,31.70
2022-12-04T20:10:19.854Z,32.85
2022-12-04T20:12:48.908Z,33.75
2022-12-04T20:15:15.826Z,29.85
2022-12-04T20:17:55.160Z,24.80
2022-12-04T20:20:32.156Z,29.00
2022-12-04T20:23:06.444Z,24.63
2022-12-04T20:25:37.681Z,26.75
2022-12-04T20:28:10.195Z,30.83
2022-12-04T20:30:49.285Z,27.73
2022-12-04T20:33:25.741Z,27.83
2022-12-04T20:35:52.852Z,30.17
2022-12-04T20:38:22.843Z,36.05
2022-12-04T20:40:54.858Z,29.17
2022-12-04T20:43:30.840Z,29.25
2022-12-04T20:46:19.903Z,29.65
2022-12-04T20:48:50.773Z,26.80
2022-12-04T20:51:33.828Z,26.70
2022-12-04T20:54:04.622Z,27.60
2022-12-04T20:56:37.914Z,27.98
2022-12-04T20:59:21.350Z,30.67
2022-12-04T21:02:02.337Z,32.10
2022-12-04T21:04:31.844Z,26.83
2022-12-04T21:07:04.173Z,26.05
2022-12-04T21:09:31.071Z,29.35
2022-12-04T21:12:04.652Z,31.92
2022-12-04T21:14:54.290Z,31.10
2022-12-04T21:17:21.421Z,29.23
2022-12-04T21:19:52.670Z,27.48
2022-12-04T21:22:21.802Z,27.65
2022-12-04T21:24:51.227Z,29.08
2022-12-04T21:27:25.546Z,26.33
2022-12-04T21:29:52.294Z,30.38
2022-12-04T21:32:19.751Z,27.73
2022-12-04T21:34:47.812Z,28.65
2022-12-04T21:37:14.629Z,26.20
2022-12-04T21:39:43.302Z,29.80
2022-12-04T21:42:31.674Z,29.80
2022-12-04T21:45:04.258Z,23.92
2022-12-04T21:47:33.790Z,27.95
2022-12-04T21:50:18.460Z,25.17
2022-12-04T21:52:45.270Z,25.33
2022-12-04T21:55:14.404Z,23.70
2022-12-04T21:57:46.156Z,27.20
2022-12-04T22:00:17.033Z,25.05
2022-12-04T22:02:43.896Z,25.02
2022-12-04T22:05:21.251Z,23.92
2022-12-04T22:07:53.234Z,25.92
2022-12-04T22:10:20.018Z,24.65
2022-12-04T22:12:50.490Z,25.25
2022-12-04T22:15:18.003Z,23.42
2022-12-04T22:17:47.152Z,25.48
2022-12-04T22:20:17.414Z,23.75
2022-12-04T22:22:46.928Z,24.77
2022-12-04T22:25:14.744Z,25.00
2022-12-04T22:27:46.639Z,23.25
2022-12-04T22:30:13.954Z,27.38
2022-12-04T22:32:43.843Z,22.80
2022-12-04T22:35:13.455Z,28.25
2022-12-04T22:37:44.759Z,25.17
2022-12-04T22:40:15.598Z,26.27
2022-12-04T22:42:45.049Z,26.15
2022-12-04T22:45:15.536Z,25.63
2022-12-04T22:47:44.730Z,21.55
2022-12-04T22:50:13.639Z,24.70
2022-12-04T22:52:43.455Z,24.77
2022-12-04T22:55:10.419Z,24.98
2022-12-04T22:57:37.481Z,21.73
2022-12-04T23:00:14.003Z,25.45
2022-12-04T23:02:43.740Z,25.67
2022-12-04T23:05:12.114Z,23.25
2022-12-04T23:07:39.508Z,23.98
2022-12-04T23:10:09.845Z,25.67
2022-12-04T23:12:36.581Z,29.30
2022-12-04T23:15:07.840Z,27.02
2022-12-04T23:17:38.024Z,21.38
2022-12-04T23:20:08.798Z,28.95
2022-12-04T23:22:38.562Z,29.73
2022-12-04T23:25:07.012Z,27.33
2022-12-04T23:27:33.831Z,28.08
2022-12-04T23:30:05.324Z,22.17
2022-12-04T23:32:34.394Z,21.58
2022-12-04T23:35:06.013Z,23.80
2022-12-04T23:37:37.623Z,26.88
2022-12-04T23:40:09.559Z,20.83
2022-12-04T23:42:36.499Z,27.15
2022-12-04T23:45:04.398Z,27.42
2022-12-04T23:47:31.212Z,26.27
2022-12-04T23:50:06.004Z,23.58
2022-12-04T23:52:33.027Z,26.77
2022-12-04T23:55:07.412Z,30.38
2022-12-04T23:57:38.267Z,21.23
